Time;durP1;ratioP1;P1;durP2;ratioP2;P2;SDS_P1;SDS_P2;PMS_P1;PMS_P2;Temp;Humidity;BMP_temperature;BMP_pressure;BME280_temperature;BME280_humidity;BME280_pressure;Samples;Min_cycle;Max_cycle;Signal;HPM_P1;HPM_P2
2021/09/01 00:00:11;;;;;;;27.80;16.50;;;;;;;13.79;80.75;98469.30;112094;1206;95003;-74
2021/09/01 00:02:59;;;;;;;25.70;15.90;;;;;;;13.81;80.77;98469.17;112133;1206;113434;-74
2021/09/01 00:05:29;;;;;;;27.90;16.10;;;;;;;13.83;80.72;98471.64;112136;1206;97674;-72
2021/09/01 00:07:57;;;;;;;27.10;16.30;;;;;;;13.84;80.72;98470.98;112089;1206;108400;-72
2021/09/01 00:10:25;;;;;;;24.80;15.40;;;;;;;13.86;80.71;98473.15;112105;1198;97540;-73
2021/09/01 00:12:53;;;;;;;25.00;15.70;;;;;;;13.88;80.81;98474.56;112056;1198;97641;-73
2021/09/01 00:15:20;;;;;;;24.80;15.10;;;;;;;13.89;80.79;98476.98;112147;1205;110146;-71
2021/09/01 00:17:48;;;;;;;25.60;15.50;;;;;;;13.90;80.86;98474.36;113124;1198;95473;-72
2021/09/01 00:20:16;;;;;;;26.10;15.20;;;;;;;13.92;80.78;98476.14;112123;1199;107463;-73
2021/09/01 00:22:44;;;;;;;26.30;15.70;;;;;;;13.94;80.72;98477.59;112160;1198;98296;-74
2021/09/01 00:25:12;;;;;;;26.10;15.80;;;;;;;13.94;80.73;98477.05;112182;1197;97575;-73
2021/09/01 00:27:40;;;;;;;26.00;14.80;;;;;;;13.94;80.79;98478.39;112177;1205;111196;-73
2021/09/01 00:30:10;;;;;;;31.10;14.80;;;;;;;13.95;80.81;98475.63;112145;1204;97579;-73
2021/09/01 00:32:38;;;;;;;27.20;14.70;;;;;;;13.96;80.81;98476.14;112130;1207;107484;-74
2021/09/01 00:35:08;;;;;;;24.40;13.30;;;;;;;13.95;80.84;98480.42;112134;1198;97722;-73
2021/09/01 00:37:36;;;;;;;26.20;14.60;;;;;;;13.96;80.80;98481.26;112138;1198;97662;-72
2021/09/01 00:40:06;;;;;;;22.30;13.20;;;;;;;13.96;80.82;98484.49;112151;1205;110964;-73
2021/09/01 00:42:37;;;;;;;21.10;12.30;;;;;;;13.96;80.82;98487.54;112137;1206;97640;-73
2021/09/01 00:45:08;;;;;;;26.10;13.90;;;;;;;13.95;80.85;98490.30;112127;1207;107420;-72
2021/09/01 00:47:39;;;;;;;23.10;13.70;;;;;;;13.94;80.83;98490.87;112159;1206;97570;-72
2021/09/01 00:50:09;;;;;;;24.70;12.80;;;;;;;13.94;80.83;98494.84;112153;1203;97706;-72
2021/09/01 00:52:43;;;;;;;23.00;12.60;;;;;;;13.94;80.85;98498.95;112143;1207;111062;-70
2021/09/01 00:55:14;;;;;;;24.60;13.20;;;;;;;13.93;80.82;98503.30;112152;1203;95092;-72
2021/09/01 00:57:45;;;;;;;23.70;13.20;;;;;;;13.92;80.93;98505.67;112117;1205;107530;-71
2021/09/01 01:00:21;;;;;;;22.80;12.90;;;;;;;13.91;80.93;98502.38;112135;1197;97685;-72
2021/09/01 01:02:49;;;;;;;21.80;12.40;;;;;;;13.91;80.90;98504.36;112087;1204;95757;-72
2021/09/01 01:05:19;;;;;;;22.50;12.90;;;;;;;13.91;80.94;98505.12;112093;1205;111232;-71
2021/09/01 01:07:47;;;;;;;22.60;12.90;;;;;;;13.90;80.94;98505.57;112151;1199;98282;-72
2021/09/01 01:10:15;;;;;;;25.00;13.70;;;;;;;13.89;80.86;98506.16;112089;1205;107443;-71
2021/09/01 01:12:42;;;;;;;21.70;12.90;;;;;;;13.88;80.97;98506.78;112122;1198;97736;-72
2021/09/01 01:15:10;;;;;;;23.70;13.50;;;;;;;13.89;80.92;98508.36;112115;1198;97717;-73
2021/09/01 01:17:38;;;;;;;22.20;13.50;;;;;;;13.89;80.97;98508.49;112091;1201;111186;-72
2021/09/01 01:20:09;;;;;;;24.00;13.40;;;;;;;13.90;80.97;98508.10;112143;1205;97593;-71
2021/09/01 01:22:36;;;;;;;21.80;12.80;;;;;;;13.90;81.00;98504.84;112106;1206;107362;-72
2021/09/01 01:25:08;;;;;;;22.50;12.40;;;;;;;13.91;81.01;98507.45;112151;1197;97629;-72
2021/09/01 01:27:43;;;;;;;21.90;12.40;;;;;;;13.91;81.02;98507.39;112101;1199;98287;-71
2021/09/01 01:30:15;;;;;;;25.30;14.70;;;;;;;13.92;81.01;98509.25;112117;1205;110773;-73
2021/09/01 01:32:48;;;;;;;23.10;14.10;;;;;;;13.93;81.03;98510.64;112146;1206;97562;-72
2021/09/01 01:35:28;;;;;;;23.80;13.30;;;;;;;13.93;81.06;98512.94;112148;1198;107964;-73
2021/09/01 01:38:00;;;;;;;24.30;13.70;;;;;;;13.93;81.06;98515.46;112105;1203;97574;-72
2021/09/01 01:40:30;;;;;;;25.60;13.40;;;;;;;13.92;81.04;98511.77;112577;1198;95693;-72
2021/09/01 01:43:01;;;;;;;22.80;12.30;;;;;;;13.93;81.01;98515.04;113720;1198;110990;-74
2021/09/01 01:45:35;;;;;;;21.40;12.10;;;;;;;13.94;81.01;98515.66;112143;1205;95996;-72
2021/09/01 01:48:05;;;;;;;22.70;12.40;;;;;;;13.95;81.09;98517.04;112067;1199;107481;-74
2021/09/01 01:50:37;;;;;;;23.30;12.40;;;;;;;13.95;80.99;98514.73;112060;1198;95039;-75
2021/09/01 01:53:07;;;;;;;21.70;12.50;;;;;;;13.95;80.96;98512.95;112135;1198;95158;-71
2021/09/01 01:55:35;;;;;;;23.10;13.80;;;;;;;13.93;81.06;98514.86;112074;1205;111083;-72
2021/09/01 01:58:03;;;;;;;21.20;12.20;;;;;;;13.93;81.01;98516.09;112162;1205;97539;-72
2021/09/01 02:00:33;;;;;;;23.10;12.80;;;;;;;13.94;81.02;98515.19;112101;1205;107483;-72
2021/09/01 02:03:07;;;;;;;19.70;10.60;;;;;;;13.94;81.09;98514.11;112158;1203;97588;-72
2021/09/01 02:05:35;;;;;;;21.60;12.20;;;;;;;13.93;81.00;98510.45;112070;1207;97671;-72
2021/09/01 02:08:03;;;;;;;21.90;12.40;;;;;;;13.92;81.09;98509.11;112107;1203;110923;-73
2021/09/01 02:10:31;;;;;;;24.00;12.90;;;;;;;13.91;81.01;98513.67;112111;1206;97583;-72
2021/09/01 02:12:59;;;;;;;22.30;13.10;;;;;;;13.90;81.06;98519.94;112138;1206;107500;-72
2021/09/01 02:15:27;;;;;;;23.80;13.30;;;;;;;13.89;81.01;98518.27;112126;1199;95041;-73
2021/09/01 02:17:55;;;;;;;21.70;12.80;;;;;;;13.89;81.04;98521.51;112126;1197;97603;-73
2021/09/01 02:20:25;;;;;;;20.70;12.40;;;;;;;13.87;81.02;98521.30;112140;1205;112310;-73
2021/09/01 02:22:55;;;;;;;24.80;13.40;;;;;;;13.86;81.09;98527.16;112168;1205;97709;-75
2021/09/01 02:25:26;;;;;;;24.70;13.20;;;;;;;13.84;81.04;98522.31;112124;1208;107377;-71
2021/09/01 02:27:56;;;;;;;21.60;12.80;;;;;;;13.84;81.10;98526.27;112159;1197;97588;-73
2021/09/01 02:30:23;;;;;;;22.80;12.90;;;;;;;13.84;81.10;98530.36;112103;1203;96883;-72
2021/09/01 02:32:51;;;;;;;22.40;13.40;;;;;;;13.83;81.09;98534.13;112131;1205;110925;-72
2021/09/01 02:35:19;;;;;;;23.50;12.70;;;;;;;13.83;81.05;98536.81;112133;1205;97673;-72
2021/09/01 02:37:52;;;;;;;22.00;13.20;;;;;;;13.83;81.13;98535.94;112088;1205;107549;-72
2021/09/01 02:40:22;;;;;;;21.60;12.50;;;;;;;13.83;81.15;98534.36;112110;1199;95152;-72
2021/09/01 02:42:50;;;;;;;25.40;13.30;;;;;;;13.83;81.12;98534.36;112114;1203;96992;-73
2021/09/01 02:45:18;;;;;;;21.80;12.50;;;;;;;13.82;81.10;98536.24;112132;1198;111205;-73
2021/09/01 02:47:48;;;;;;;23.00;11.90;;;;;;;13.81;81.15;98538.27;112136;1206;97521;-73
2021/09/01 02:50:16;;;;;;;25.10;12.50;;;;;;;13.81;81.16;98540.02;112074;1205;108363;-71
2021/09/01 02:52:45;;;;;;;22.00;12.20;;;;;;;13.82;81.15;98537.50;112112;1202;95021;-69
2021/09/01 02:55:13;;;;;;;23.20;12.40;;;;;;;13.81;81.19;98538.67;112100;1202;97793;-71
2021/09/01 02:57:41;;;;;;;23.70;13.20;;;;;;;13.81;81.13;98537.44;112095;1205;111140;-69
2021/09/01 03:00:11;;;;;;;21.20;11.60;;;;;;;13.80;81.17;98539.13;112096;1205;97699;-71
2021/09/01 03:02:40;;;;;;;22.90;13.10;;;;;;;13.80;81.18;98544.61;112083;1199;107476;-70
2021/09/01 03:05:10;;;;;;;21.70;12.60;;;;;;;13.79;81.14;98547.17;112071;1199;97678;-74
2021/09/01 03:07:38;;;;;;;21.30;11.00;;;;;;;13.79;81.21;98547.36;112077;1203;95636;-69
2021/09/01 03:10:06;;;;;;;22.70;12.90;;;;;;;13.79;81.18;98549.34;112154;1198;110571;-73
2021/09/01 03:12:34;;;;;;;20.00;11.30;;;;;;;13.80;81.12;98547.85;112074;1204;96415;-73
2021/09/01 03:15:02;;;;;;;24.80;12.40;;;;;;;13.79;81.18;98547.37;112120;1204;107416;-72
2021/09/01 03:17:32;;;;;;;20.30;11.20;;;;;;;13.79;81.14;98550.58;112062;1200;97807;-72
2021/09/01 03:20:00;;;;;;;19.70;10.60;;;;;;;13.79;81.19;98552.91;112129;1202;95052;-72
2021/09/01 03:22:28;;;;;;;23.20;11.70;;;;;;;13.78;81.16;98552.10;112046;1206;110820;-73
2021/09/01 03:24:56;;;;;;;20.80;11.50;;;;;;;13.78;81.16;98551.98;112129;1205;97717;-71
2021/09/01 03:27:28;;;;;;;22.00;11.90;;;;;;;13.77;81.17;98555.75;112108;1205;107166;-71
2021/09/01 03:29:56;;;;;;;19.60;10.70;;;;;;;13.76;81.12;98562.27;112079;1200;95066;-70
2021/09/01 03:32:26;;;;;;;20.30;11.10;;;;;;;13.74;81.14;98568.90;112098;1205;97603;-71
2021/09/01 03:34:54;;;;;;;19.30;10.40;;;;;;;13.73;81.13;98573.80;112057;1199;110943;-72
2021/09/01 03:37:23;;;;;;;20.40;10.90;;;;;;;13.71;81.16;98578.98;112047;1197;97662;-72
2021/09/01 03:39:53;;;;;;;21.10;11.10;;;;;;;13.70;81.24;98584.91;112059;1205;107350;-72
2021/09/01 03:42:21;;;;;;;21.10;11.70;;;;;;;13.69;81.12;98585.56;112092;1198;98005;-72
2021/09/01 03:44:48;;;;;;;22.10;11.50;;;;;;;13.68;81.18;98588.42;112064;1198;97552;-71
2021/09/01 03:47:16;;;;;;;22.60;12.00;;;;;;;13.68;81.27;98586.49;112080;1204;111726;-73
2021/09/01 03:49:44;;;;;;;21.20;11.50;;;;;;;13.68;81.22;98587.98;112072;1207;97774;-72
2021/09/01 03:52:13;;;;;;;21.30;11.20;;;;;;;13.67;81.16;98587.34;112043;1205;107550;-71
2021/09/01 03:54:41;;;;;;;23.40;12.80;;;;;;;13.66;81.14;98588.29;112471;1198;97555;-74
2021/09/01 03:57:09;;;;;;;26.40;13.50;;;;;;;13.66;81.12;98586.75;112121;1205;97668;-70
2021/09/01 03:59:37;;;;;;;26.30;13.90;;;;;;;13.66;81.15;98591.02;112077;1205;111180;-72
2021/09/01 04:02:07;;;;;;;23.40;13.30;;;;;;;13.65;81.12;98595.02;112140;1197;97598;-72
2021/09/01 04:04:35;;;;;;;23.90;14.10;;;;;;;13.64;81.14;98595.05;112089;1205;107568;-74
2021/09/01 04:07:06;;;;;;;23.60;14.00;;;;;;;13.64;81.13;98598.64;112162;1203;97599;-72
2021/09/01 04:09:33;;;;;;;24.10;13.20;;;;;;;13.63;81.08;98598.22;112270;1199;97712;-72
2021/09/01 04:12:06;;;;;;;23.00;12.30;;;;;;;13.62;81.10;98598.16;112297;1198;111111;-72
2021/09/01 04:14:34;;;;;;;25.00;13.40;;;;;;;13.61;81.14;98597.18;112308;1205;97549;-75
2021/09/01 04:17:04;;;;;;;23.40;12.60;;;;;;;13.59;81.17;98600.55;112307;1205;108732;-73
2021/09/01 04:19:32;;;;;;;32.40;12.70;;;;;;;13.57;81.11;98599.86;112337;1205;95118;-73
2021/09/01 04:22:00;;;;;;;22.70;12.70;;;;;;;13.55;81.16;98601.09;112102;1205;95381;-75
2021/09/01 04:24:28;;;;;;;23.80;12.60;;;;;;;13.54;81.19;98603.14;112090;1205;111144;-75
2021/09/01 04:26:56;;;;;;;22.20;11.20;;;;;;;13.52;81.20;98605.09;112134;1206;97616;-76
2021/09/01 04:29:23;;;;;;;24.80;13.00;;;;;;;13.52;81.19;98607.11;112090;1205;107458;-74
2021/09/01 04:31:51;;;;;;;22.80;12.30;;;;;;;13.51;81.23;98613.08;112061;1203;95052;-74
2021/09/01 04:34:21;;;;;;;22.30;12.70;;;;;;;13.49;81.18;98615.33;112039;1198;97597;-76
2021/09/01 04:36:49;;;;;;;21.70;12.60;;;;;;;13.49;81.25;98610.88;112072;1198;110724;-73
2021/09/01 04:39:17;;;;;;;24.60;12.30;;;;;;;13.51;81.32;98613.07;112069;1205;97648;-75
2021/09/01 04:41:48;;;;;;;23.00;12.50;;;;;;;13.52;81.18;98620.95;112115;1203;105715;-75
2021/09/01 04:44:18;;;;;;;23.40;13.30;;;;;;;13.54;81.30;98622.75;112066;1205;95925;-73
2021/09/01 04:46:46;;;;;;;26.30;13.10;;;;;;;13.55;81.38;98622.60;112105;1205;97651;-73
2021/09/01 04:49:16;;;;;;;23.40;12.70;;;;;;;13.59;81.35;98628.20;112122;1205;111087;-72
2021/09/01 04:51:46;;;;;;;22.20;12.70;;;;;;;13.61;81.29;98627.08;112133;1205;98047;-75
2021/09/01 04:54:14;;;;;;;22.50;12.80;;;;;;;13.64;81.39;98625.36;112096;1205;108596;-75
2021/09/01 04:56:42;;;;;;;22.20;12.40;;;;;;;13.67;81.34;98629.88;112089;1203;97666;-73
2021/09/01 04:59:09;;;;;;;21.80;11.80;;;;;;;13.71;81.36;98636.02;112109;1202;95982;-74
2021/09/01 05:01:37;;;;;;;23.00;11.50;;;;;;;13.74;81.24;98640.19;112037;1198;111164;-74
2021/09/01 05:04:07;;;;;;;23.90;11.80;;;;;;;13.76;81.35;98638.17;112870;1197;97659;-75
2021/09/01 05:06:35;;;;;;;21.10;10.50;;;;;;;13.78;81.28;98641.19;111917;1205;108036;-75
2021/09/01 05:09:03;;;;;;;20.00;10.90;;;;;;;13.81;81.36;98648.21;112076;1205;97650;-75
2021/09/01 05:11:31;;;;;;;21.10;10.60;;;;;;;13.86;81.30;98649.65;112097;1205;95111;-75
2021/09/01 05:14:01;;;;;;;23.30;10.60;;;;;;;13.88;81.30;98649.42;112052;1203;111246;-74
2021/09/01 05:16:29;;;;;;;19.70;10.00;;;;;;;13.90;81.33;98650.80;112057;1207;97681;-72
2021/09/01 05:18:58;;;;;;;20.80;11.10;;;;;;;13.93;81.38;98655.16;112025;1205;107709;-75
2021/09/01 05:21:31;;;;;;;18.30;9.50;;;;;;;13.96;81.38;98655.22;112061;1205;97616;-77
2021/09/01 05:24:00;;;;;;;19.90;10.00;;;;;;;13.98;81.36;98656.11;112069;1206;94967;-74
2021/09/01 05:26:34;;;;;;;19.60;10.10;;;;;;;14.00;81.39;98658.77;112057;1198;110722;-75
2021/09/01 05:29:06;;;;;;;19.80;9.20;;;;;;;14.03;81.43;98659.43;112106;1203;97624;-74
2021/09/01 05:31:36;;;;;;;18.20;8.60;;;;;;;14.05;81.33;98659.77;112022;1203;107471;-75
2021/09/01 05:34:04;;;;;;;17.20;7.80;;;;;;;14.07;81.35;98657.39;112054;1198;97659;-75
2021/09/01 05:36:34;;;;;;;16.20;7.20;;;;;;;14.12;81.23;98657.86;112092;1203;97586;-73
2021/09/01 05:39:02;;;;;;;13.30;6.60;;;;;;;14.18;81.23;98662.16;112054;1206;111135;-74
2021/09/01 05:41:30;;;;;;;14.60;7.00;;;;;;;14.22;81.21;98662.12;112042;1205;97661;-74
2021/09/01 05:44:00;;;;;;;14.50;6.90;;;;;;;14.24;81.24;98665.83;112054;1204;107424;-75
2021/09/01 05:46:32;;;;;;;10.90;6.10;;;;;;;14.27;81.31;98665.39;112042;1198;97686;-76
2021/09/01 05:49:02;;;;;;;14.90;6.80;;;;;;;14.31;81.32;98663.17;112074;1205;97777;-74
2021/09/01 05:51:30;;;;;;;14.10;6.60;;;;;;;14.36;81.34;98665.81;112058;1205;111125;-76
2021/09/01 05:53:58;;;;;;;12.70;6.90;;;;;;;14.39;81.26;98666.20;112053;1200;97682;-74
2021/09/01 05:56:34;;;;;;;14.50;6.70;;;;;;;14.43;81.29;98662.31;112015;1205;107426;-74
2021/09/01 05:59:09;;;;;;;14.90;6.80;;;;;;;14.47;81.35;98667.07;112190;1197;97758;-77
2021/09/01 06:01:44;;;;;;;12.80;6.10;;;;;;;14.51;81.30;98664.95;112058;1205;97686;-72
2021/09/01 06:04:17;;;;;;;13.70;5.80;;;;;;;14.54;81.30;98670.38;112029;1198;111168;-75
2021/09/01 06:06:49;;;;;;;11.90;5.70;;;;;;;14.56;81.30;98671.95;112005;1197;97350;-75
2021/09/01 06:09:19;;;;;;;12.30;4.90;;;;;;;14.57;81.22;98674.44;112019;1197;107299;-75
2021/09/01 06:11:52;;;;;;;10.90;5.50;;;;;;;14.57;81.20;98675.34;112058;1205;97681;-83
2021/09/01 06:14:20;;;;;;;11.30;5.20;;;;;;;14.56;81.19;98674.79;112146;1203;97594;-75
2021/09/01 06:16:48;;;;;;;10.90;5.00;;;;;;;14.57;81.30;98669.89;112284;1205;111109;-75
2021/09/01 06:19:16;;;;;;;10.40;5.10;;;;;;;14.59;81.32;98673.23;112007;1198;97651;-74
2021/09/01 06:21:43;;;;;;;9.60;4.60;;;;;;;14.61;81.29;98675.05;111939;1205;107245;-75
2021/09/01 06:24:11;;;;;;;9.60;4.90;;;;;;;14.61;81.24;98676.06;111858;1197;98035;-76
2021/09/01 06:26:39;;;;;;;8.80;4.90;;;;;;;14.61;81.26;98676.80;112938;1197;95740;-76
2021/09/01 06:29:07;;;;;;;8.10;4.50;;;;;;;14.61;81.26;98677.87;111991;1198;111132;-76
2021/09/01 06:31:36;;;;;;;9.00;4.90;;;;;;;14.61;81.34;98678.04;112710;1197;97559;-75
2021/09/01 06:34:07;;;;;;;9.70;4.50;;;;;;;14.60;81.33;98682.80;111974;1205;107280;-76
2021/09/01 06:36:34;;;;;;;7.60;4.20;;;;;;;14.59;81.31;98683.39;111883;1199;97608;-75
2021/09/01 06:39:06;;;;;;;7.50;3.70;;;;;;;14.58;81.32;98682.55;112119;1203;98026;-75
2021/09/01 06:41:34;;;;;;;7.60;3.70;;;;;;;14.59;81.36;98685.87;111965;1198;112076;-77
2021/09/01 06:44:07;;;;;;;5.80;3.40;;;;;;;14.59;81.28;98694.30;112117;1198;97526;-75
2021/09/01 06:46:36;;;;;;;6.30;3.30;;;;;;;14.58;81.24;98688.23;111934;1203;107439;-76
2021/09/01 06:49:04;;;;;;;7.20;3.60;;;;;;;14.59;81.33;98687.34;111985;1203;97619;-73
2021/09/01 06:51:33;;;;;;;3.90;2.60;;;;;;;14.59;81.30;98690.52;111977;1203;98718;-75
2021/09/01 06:54:01;;;;;;;3.40;2.50;;;;;;;14.61;81.35;98689.82;111939;1198;111171;-76
2021/09/01 06:56:29;;;;;;;4.60;2.20;;;;;;;14.62;81.38;98690.48;112031;1205;97942;-76
2021/09/01 06:58:57;;;;;;;4.10;2.40;;;;;;;14.62;81.35;98694.54;111873;1198;109014;-76
2021/09/01 07:01:25;;;;;;;3.40;2.30;;;;;;;14.61;81.25;98701.41;111937;1197;97551;-75
2021/09/01 07:03:56;;;;;;;4.20;2.30;;;;;;;14.62;81.30;98702.04;112029;1199;95037;-75
2021/09/01 07:06:28;;;;;;;4.40;1.90;;;;;;;14.63;81.40;98704.31;112009;1197;111289;-75
2021/09/01 07:08:56;;;;;;;3.40;2.40;;;;;;;14.63;81.38;98708.38;112109;1197;97616;-76
2021/09/01 07:11:24;;;;;;;3.00;2.00;;;;;;;14.62;81.26;98717.17;112053;1205;107449;-76
2021/09/01 07:13:52;;;;;;;3.50;2.10;;;;;;;14.62;81.34;98716.72;112063;1197;97597;-76
2021/09/01 07:16:20;;;;;;;4.50;2.30;;;;;;;14.57;81.26;98716.73;112082;1205;97564;-73
2021/09/01 07:18:48;;;;;;;3.90;2.40;;;;;;;14.56;81.32;98721.55;112069;1200;110999;-75
2021/09/01 07:21:16;;;;;;;3.60;2.60;;;;;;;14.55;81.27;98724.12;112099;1197;97675;-76
2021/09/01 07:23:48;;;;;;;3.90;2.20;;;;;;;14.55;81.31;98726.26;112062;1205;107223;-75
2021/09/01 07:26:16;;;;;;;2.90;2.00;;;;;;;14.52;81.27;98730.29;111994;1205;97616;-74
2021/09/01 07:28:44;;;;;;;2.70;2.40;;;;;;;14.49;81.36;98731.31;112040;1197;95078;-76
2021/09/01 07:31:12;;;;;;;3.90;2.50;;;;;;;14.49;81.38;98738.07;111980;1197;111152;-75
2021/09/01 07:33:41;;;;;;;6.60;2.70;;;;;;;14.50;81.30;98739.56;111951;1205;97671;-74
2021/09/01 07:36:09;;;;;;;3.70;2.40;;;;;;;14.54;81.40;98742.80;112038;1205;107523;-74
2021/09/01 07:38:37;;;;;;;3.00;2.40;;;;;;;14.58;81.34;98749.55;112517;1197;97648;-75
2021/09/01 07:41:05;;;;;;;5.80;2.80;;;;;;;14.59;81.44;98753.11;111995;1205;97653;-74
2021/09/01 07:43:33;;;;;;;6.90;2.30;;;;;;;14.60;81.41;98758.08;112077;1205;111061;-75
2021/09/01 07:46:01;;;;;;;4.50;2.20;;;;;;;14.62;81.40;98758.48;112165;1197;97655;-74
2021/09/01 07:48:39;;;;;;;3.30;2.40;;;;;;;14.66;81.47;98757.93;112074;1206;106121;-75
2021/09/01 07:51:07;;;;;;;2.40;2.10;;;;;;;14.69;81.34;98760.10;112064;1197;98287;-75
2021/09/01 07:53:35;;;;;;;5.00;2.40;;;;;;;14.71;81.37;98759.93;112042;1197;97692;-74
2021/09/01 07:56:04;;;;;;;3.70;2.30;;;;;;;14.72;81.41;98761.96;111948;1205;111135;-74
2021/09/01 07:58:32;;;;;;;3.00;2.10;;;;;;;14.73;81.39;98759.39;112556;1197;97693;-75
2021/09/01 08:01:04;;;;;;;4.70;2.30;;;;;;;14.73;81.33;98764.35;112111;1205;107472;-76
2021/09/01 08:03:37;;;;;;;2.20;1.90;;;;;;;14.76;81.42;98770.35;112080;1206;97615;-75
2021/09/01 08:06:07;;;;;;;2.50;1.80;;;;;;;14.82;81.38;98765.34;111984;1206;97652;-77
2021/09/01 08:08:37;;;;;;;3.10;2.00;;;;;;;14.88;81.43;98767.38;111949;1205;111138;-73
2021/09/01 08:11:05;;;;;;;4.30;2.40;;;;;;;14.97;81.42;98772.98;112134;1197;97567;-75
2021/09/01 08:13:32;;;;;;;4.60;2.20;;;;;;;15.05;81.42;98774.98;111905;1205;107463;-75
2021/09/01 08:16:00;;;;;;;4.00;2.30;;;;;;;15.10;81.36;98777.65;112207;1197;97737;-75
2021/09/01 08:18:28;;;;;;;3.80;2.60;;;;;;;15.16;81.36;98774.23;112567;1197;96933;-74
2021/09/01 08:20:56;;;;;;;4.80;2.50;;;;;;;15.22;81.39;98776.70;112168;1206;111124;-73
2021/09/01 08:23:24;;;;;;;4.90;2.30;;;;;;;15.28;81.28;98785.94;112134;1200;95118;-75
2021/09/01 08:25:51;;;;;;;3.70;2.40;;;;;;;15.34;81.21;98781.86;112137;1205;107591;-75
2021/09/01 08:28:19;;;;;;;2.80;2.00;;;;;;;15.42;81.19;98779.27;112059;1205;97642;-74
2021/09/01 08:30:47;;;;;;;3.40;2.50;;;;;;;15.46;81.21;98782.77;112110;1199;97661;-75
2021/09/01 08:33:15;;;;;;;2.00;1.80;;;;;;;15.45;81.18;98788.77;112107;1202;111139;-73
2021/09/01 08:35:43;;;;;;;7.20;2.50;;;;;;;15.40;81.26;98790.91;112091;1206;97680;-72
2021/09/01 08:38:11;;;;;;;2.70;2.00;;;;;;;15.39;81.22;98795.05;112092;1205;107465;-74
2021/09/01 08:40:51;;;;;;;4.80;2.40;;;;;;;15.39;81.43;98795.79;112084;1205;98263;-71
2021/09/01 08:43:22;;;;;;;3.10;2.10;;;;;;;15.42;81.38;98794.96;112007;1206;96892;-77
2021/09/01 08:45:50;;;;;;;2.50;1.60;;;;;;;15.46;81.25;98799.77;112072;1205;111357;-76
2021/09/01 08:48:24;;;;;;;2.80;1.80;;;;;;;15.51;81.40;98801.28;112106;1197;96399;-79
2021/09/01 08:50:56;;;;;;;2.30;1.70;;;;;;;15.55;81.14;98804.45;112070;1205;107503;-77
2021/09/01 08:53:24;;;;;;;1.90;1.50;;;;;;;15.55;81.18;98806.96;112043;1198;97677;-79
2021/09/01 08:55:52;;;;;;;3.40;1.70;;;;;;;15.55;81.24;98805.36;112092;1205;97725;-76
2021/09/01 08:58:22;;;;;;;3.30;1.90;;;;;;;15.73;81.18;98802.27;112119;1204;111225;-78
2021/09/01 09:00:50;;;;;;;1.50;1.40;;;;;;;15.90;81.16;98802.11;112104;1205;95081;-78
2021/09/01 09:03:23;;;;;;;1.80;1.60;;;;;;;15.98;81.21;98804.89;112089;1205;108174;-77
2021/09/01 09:05:52;;;;;;;2.80;1.70;;;;;;;16.01;81.19;98803.20;112087;1200;97555;-79
2021/09/01 09:08:32;;;;;;;2.40;1.40;;;;;;;16.02;80.98;98812.40;111988;1200;97637;-79
2021/09/01 09:11:02;;;;;;;2.40;1.50;;;;;;;16.06;81.07;98813.39;112080;1205;110810;-78
2021/09/01 09:13:36;;;;;;;2.60;1.60;;;;;;;16.09;81.11;98812.48;112095;1205;97674;-78
2021/09/01 09:16:12;;;;;;;4.70;1.50;;;;;;;16.16;81.05;98817.94;112040;1197;107555;-78
2021/09/01 09:18:41;;;;;;;2.00;1.40;;;;;;;16.36;80.93;98817.09;112065;1197;97702;-81
2021/09/01 09:21:23;;;;;;;3.00;1.50;;;;;;;16.44;81.04;98821.48;112108;1197;97593;-77
2021/09/01 09:23:51;;;;;;;7.10;1.70;;;;;;;16.46;80.94;98820.04;112050;1204;111236;-75
2021/09/01 09:26:26;;;;;;;4.50;1.30;;;;;;;16.42;80.96;98819.30;112102;1197;96810;-78
2021/09/01 09:29:13;;;;;;;3.60;1.20;;;;;;;16.42;80.95;98818.27;112045;1204;107367;-77
2021/09/01 09:32:00;;;;;;;4.00;1.40;;;;;;;16.47;80.87;98815.81;112044;1197;97714;-77
2021/09/01 09:34:39;;;;;;;4.50;2.00;;;;;;;16.52;80.87;98816.30;112039;1197;95153;-77
2021/09/01 09:37:18;;;;;;;2.70;1.20;;;;;;;16.55;80.89;98814.13;112062;1205;111150;-77
2021/09/01 09:39:52;;;;;;;2.40;1.10;;;;;;;16.52;80.84;98823.32;112079;1205;97693;-77
2021/09/01 09:42:38;;;;;;;4.30;1.10;;;;;;;16.48;80.63;98819.59;112084;1197;106118;-74
2021/09/01 09:45:26;;;;;;;3.60;1.10;;;;;;;16.46;80.70;98832.15;112089;1197;97685;-76
2021/09/01 09:47:59;;;;;;;3.80;1.30;;;;;;;16.46;80.83;98834.86;112102;1198;97615;-76
2021/09/01 09:50:27;;;;;;;3.50;1.30;;;;;;;16.46;80.81;98836.25;112073;1204;112045;-76
2021/09/01 09:52:56;;;;;;;1.40;0.70;;;;;;;16.47;80.79;98838.67;112055;1197;97585;-74
2021/09/01 09:55:29;;;;;;;1.80;1.00;;;;;;;16.49;80.67;98840.06;112034;1206;107573;-77
2021/09/01 09:58:02;;;;;;;5.40;1.20;;;;;;;16.53;80.39;98839.48;111967;1199;97671;-78
2021/09/01 10:00:30;;;;;;;;;;;;;;;16.52;80.53;98846.36;112057;1198;97577;-77
2021/09/01 10:03:03;;;;;;;1.10;0.70;;;;;;;16.48;80.72;98845.89;112013;1206;110128;-77
2021/09/01 10:05:31;;;;;;;2.20;0.70;;;;;;;16.45;80.67;98847.54;111931;1206;97894;-78
2021/09/01 10:08:01;;;;;;;0.50;0.50;;;;;;;16.40;80.47;98846.52;111910;1206;107465;-77
2021/09/01 10:10:29;;;;;;;2.50;0.80;;;;;;;16.36;80.53;98845.48;111903;1200;97685;-78
2021/09/01 10:12:57;;;;;;;1.30;0.90;;;;;;;16.37;80.47;98852.93;111958;1206;95058;-77
2021/09/01 10:15:35;;;;;;;1.40;0.70;;;;;;;16.32;80.37;98852.46;111993;1206;109903;-78
2021/09/01 10:18:06;;;;;;;1.90;0.90;;;;;;;16.23;80.41;98857.58;111948;1206;95110;-78
2021/09/01 10:20:41;;;;;;;2.60;1.30;;;;;;;16.15;80.50;98859.41;111926;1206;108447;-78
2021/09/01 10:23:10;;;;;;;0.60;0.60;;;;;;;16.08;80.41;98865.45;111952;1206;98055;-77
2021/09/01 10:25:52;;;;;;;0.90;0.80;;;;;;;16.02;80.30;98868.95;111940;1200;97590;-77
2021/09/01 10:28:21;;;;;;;1.10;0.80;;;;;;;15.98;80.46;98867.73;111989;1200;111116;-79
2021/09/01 10:31:08;;;;;;;1.00;1.00;;;;;;;15.91;80.45;98875.13;111993;1200;97676;-77
2021/09/01 10:33:41;;;;;;;3.30;1.60;;;;;;;15.86;80.33;98882.78;111954;1200;107499;-76
2021/09/01 10:36:32;;;;;;;3.90;1.40;;;;;;;15.86;80.68;98880.62;111994;1200;97576;-76
2021/09/01 10:39:02;;;;;;;4.90;2.10;;;;;;;15.87;80.58;98882.46;111904;1202;95046;-79
2021/09/01 10:41:33;;;;;;;4.00;1.90;;;;;;;15.88;80.46;98883.17;111908;1206;111234;-78
2021/09/01 10:44:11;;;;;;;3.90;1.90;;;;;;;15.90;80.43;98886.52;112002;1206;97802;-78
2021/09/01 10:46:55;;;;;;;3.20;1.90;;;;;;;15.92;80.42;98890.96;111940;1206;107490;-77
2021/09/01 10:49:26;;;;;;;2.50;1.80;;;;;;;15.93;80.42;98891.71;111933;1199;97662;-77
2021/09/01 10:51:57;;;;;;;2.70;1.80;;;;;;;15.96;80.28;98894.56;111937;1198;98161;-76
2021/09/01 10:54:31;;;;;;;3.30;2.20;;;;;;;15.95;80.46;98896.73;111920;1206;112054;-77
2021/09/01 10:57:03;;;;;;;1.80;1.70;;;;;;;15.94;80.32;98900.10;111951;1200;95437;-79
2021/09/01 10:59:38;;;;;;;3.50;2.10;;;;;;;15.87;80.31;98910.55;111924;1200;107727;-78
2021/09/01 11:02:16;;;;;;;5.80;2.30;;;;;;;15.80;80.21;98912.66;112082;1198;97559;-78
2021/09/01 11:04:49;;;;;;;5.90;2.60;;;;;;;15.78;80.23;98920.16;112048;1199;95009;-79
2021/09/01 11:07:21;;;;;;;3.70;2.60;;;;;;;15.77;80.11;98924.22;112092;1200;111215;-78
2021/09/01 11:09:59;;;;;;;3.30;2.20;;;;;;;15.73;80.18;98926.55;112132;1201;98336;-79
2021/09/01 11:12:32;;;;;;;5.60;2.80;;;;;;;15.71;80.28;98931.88;112101;1197;107981;-78
2021/09/01 11:15:00;;;;;;;4.40;2.70;;;;;;;15.70;80.44;98939.37;111990;1198;95158;-78
2021/09/01 11:17:31;;;;;;;3.30;2.70;;;;;;;15.69;80.47;98941.41;112057;1205;97604;-77
2021/09/01 11:20:04;;;;;;;5.50;2.80;;;;;;;15.69;80.54;98943.09;112076;1205;111156;-78
2021/09/01 11:22:36;;;;;;;6.00;3.60;;;;;;;15.67;80.22;98947.86;112022;1205;97648;-75
2021/09/01 11:25:06;;;;;;;10.00;3.20;;;;;;;15.63;80.31;98950.23;112119;1199;107435;-77
2021/09/01 11:27:38;;;;;;;4.40;2.70;;;;;;;15.61;80.25;98950.42;112135;1205;96866;-78